メインページ
METAR-TAF:

METAR-TAF

空港 :

カイロ, エジプト

カイロ国際空港

緯度: 30-08N, 経度: 031-24E, 海抜: 64m

現時点の気象観測

当レポートは29分前の11:30(UTC)に作成
の風 8kt
気温 22°C
湿度 43%
気圧 1016 hPa
視程: 6000m
高度2500ftの千切れ雲あり

METAR: HECA 241130Z 36008KT 6000 BKN025 22/09 Q1016 NOSIG

時間: 13:59 (11:59 UTC)

予報

当レポートは59分前の11:00(UTC)に作成
予報は24日の 12時(UTC)から 25日の 18時(UTC)まで有効
北/北東の風 10kt
視程10km以上
高度2500ftの千切れ雲あり
確率 30% :
25日の 00時(UTC)から 25日の 06時(UTC)まで一時的に
変向風 3kt
視程: 4000m

TAF: HECA 241100Z 2412/2518 02010KT 9999 BKN025 PROB30 TEMPO 2500/2506 VRB03KT 4000 BR NSC

4,000以上の空港の気象観測と天気予報(METAR報とTAF報)

利用可能な観測所は地図上に黄色い丸と赤い丸で示す。

丸の上にカーソルを重ねると観測所名を参照できる。

次にクリックすると気象観測と天気予報を参照できる。

マップの切り替え:黒色「×」印の緑ボタンをクリックして拡大、「-」印の緑ボタンをクリックして縮小、緑色の三角印をクリックして隣りの地図に切り替え


METAR-TAF: